KTCL/TCL METAR and TAF weather

Enter ICAO airport designator
Station Type Date Time Source
KTCL METAR 2019/04/20 17:53 UTC NOAA

KTCL 201753Z 29014G23KT 10SM CLR 18/02 A2989 RMK AO2 SLP120 T01780022 10178 20100 50007


Station Type Date Time Source
KTCL Decoded METAR 2019/04/20 17:53 UTC NOAA

TUSCALOOSA REGIONAL AIRPORT, AL, United States (KTCL) 33-13N 087-37W
Apr 20, 2019 - 01:53 PM EDT / 2019.04.20 1753 UTC
Wind: from the WNW (290 degrees) at 16 MPH (14 KT) gusting to 26 MPH (23 KT):0
Visibility: 10 mile(s):0
Sky conditions: clear
Temperature: 64.0 F (17.8 C)
Dew Point: 36.0 F (2.2 C)
Relative Humidity: 35%
Pressure (altimeter): 29.89 in. Hg (1012 hPa)
Pressure tendency: 0.02 inches (0.7 hPa) higher than three hours ago
ob: KTCL 201753Z 29014G23KT 10SM CLR 18/02 A2989 RMK AO2 SLP120 T01780022 10178 20100 50007
cycle: 18

Station Type Date Time Source
KTCL TAF 2019/04/20 18:30 UTC NOAA

TAF KTCL 201729Z 2018/2118 27014G22KT P6SM SKC
FM210100 30007KT P6SM SKC
FM210600 00000KT P6SM SKC
FM211500 22005KT P6SM SKC

Example: see airport list